Time;durP1;ratioP1;P1;durP2;ratioP2;P2;SDS_P1;SDS_P2;PMS_P1;PMS_P2;Temp;Humidity;BMP_temperature;BMP_pressure;BME280_temperature;BME280_humidity;BME280_pressure;Samples;Min_cycle;Max_cycle;Signal;HPM_P1;HPM_P2
2021/11/23 00:00:38;;;;;;;28.15;20.10;;;6.90;99.90;;;;;;5064118;28;20029;-85
2021/11/23 00:03:05;;;;;;;25.73;19.75;;;7.40;99.90;;;;;;5054986;28;20036;-85
2021/11/23 00:05:32;;;;;;;29.60;19.67;;;7.00;99.90;;;;;;5054576;28;20056;-84
2021/11/23 00:07:58;;;;;;;25.40;19.33;;;7.20;99.90;;;;;;5053571;28;20054;-84
2021/11/23 00:10:24;;;;;;;26.42;19.15;;;6.90;99.90;;;;;;5051051;28;20057;-82
2021/11/23 00:12:49;;;;;;;26.48;18.83;;;7.20;99.90;;;;;;5053082;28;20025;-82
2021/11/23 00:15:15;;;;;;;24.50;18.13;;;7.10;99.90;;;;;;5055722;28;20030;-82
2021/11/23 00:17:41;;;;;;;26.63;18.40;;;6.80;99.90;;;;;;5053083;28;20083;-82
2021/11/23 00:20:08;;;;;;;25.38;18.38;;;6.80;99.90;;;;;;5054277;28;20054;-82
2021/11/23 00:22:34;;;;;;;25.00;17.88;;;6.90;99.90;;;;;;5053152;28;20029;-82
2021/11/23 00:25:01;;;;;;;23.33;17.90;;;7.20;99.90;;;;;;5050481;28;20045;-82
2021/11/23 00:27:27;;;;;;;22.52;17.20;;;6.90;99.90;;;;;;5054694;28;20032;-82
2021/11/23 00:29:53;;;;;;;23.38;16.92;;;6.90;99.90;;;;;;5054257;28;20024;-82
2021/11/23 00:32:19;;;;;;;21.95;16.60;;;6.90;99.90;;;;;;5054179;28;20094;-82
2021/11/23 00:34:45;;;;;;;21.45;16.50;;;6.90;99.90;;;;;;5050607;28;20029;-82
2021/11/23 00:37:10;;;;;;;21.77;15.80;;;6.90;99.90;;;;;;5065620;28;20025;-82
2021/11/23 00:39:36;;;;;;;21.08;15.75;;;6.90;99.90;;;;;;5055855;28;20036;-82
2021/11/23 00:42:02;;;;;;;21.63;16.30;;;6.90;99.90;;;;;;5053692;28;20119;-82
2021/11/23 00:44:28;;;;;;;21.33;15.07;;;6.90;99.90;;;;;;5054261;28;20048;-82
2021/11/23 00:46:53;;;;;;;19.27;15.55;;;6.90;99.90;;;;;;5052803;28;20071;-82
2021/11/23 00:49:19;;;;;;;25.05;16.40;;;6.80;99.90;;;;;;5049630;28;20038;-82
2021/11/23 00:51:45;;;;;;;18.90;15.02;;;6.90;99.90;;;;;;5053570;28;20087;-82
2021/11/23 00:54:11;;;;;;;24.67;16.73;;;6.90;99.90;;;;;;5053465;28;20029;-82
2021/11/23 00:56:37;;;;;;;24.02;16.67;;;6.90;99.90;;;;;;5053661;28;20029;-82
2021/11/23 00:59:03;;;;;;;20.40;15.65;;;6.90;99.90;;;;;;5054029;28;20075;-82
2021/11/23 01:01:29;;;;;;;22.80;17.40;;;7.30;99.90;;;;;;5052041;28;20108;-82
2021/11/23 01:03:55;;;;;;;22.25;15.88;;;6.80;99.90;;;;;;5051310;28;20242;-82
2021/11/23 01:06:21;;;;;;;21.15;15.30;;;6.90;99.90;;;;;;5055507;28;20068;-82
2021/11/23 01:08:47;;;;;;;19.52;14.73;;;6.80;99.90;;;;;;5053664;28;20485;-82
2021/11/23 01:11:14;;;;;;;21.52;15.68;;;6.80;99.90;;;;;;5053648;28;20032;-82
2021/11/23 01:13:40;;;;;;;18.95;14.68;;;7.20;99.90;;;;;;5053556;28;20028;-82
2021/11/23 01:16:07;;;;;;;20.92;15.48;;;7.30;99.90;;;;;;5049354;28;20185;-82
2021/11/23 01:18:33;;;;;;;19.73;15.02;;;6.90;99.90;;;;;;5056511;28;20033;-82
2021/11/23 01:21:00;;;;;;;19.77;15.50;;;6.90;99.90;;;;;;5053339;28;20025;-82
2021/11/23 01:23:27;;;;;;;21.40;16.50;;;6.90;99.90;;;;;;5056107;28;20102;-82
2021/11/23 01:25:55;;;;;;;19.40;14.98;;;6.90;99.90;;;;;;5055894;28;20107;-82
2021/11/23 01:28:22;;;;;;;21.83;15.40;;;6.90;99.90;;;;;;5053533;28;20486;-82
2021/11/23 01:30:49;;;;;;;25.38;17.85;;;6.90;99.90;;;;;;5057146;28;20503;-82
2021/11/23 01:33:15;;;;;;;19.10;16.27;;;7.00;99.90;;;;;;5059095;28;20048;-82
2021/11/23 01:35:41;;;;;;;25.70;19.58;;;7.00;99.90;;;;;;5057206;28;20025;-82
2021/11/23 01:38:07;;;;;;;22.60;17.83;;;7.00;99.90;;;;;;5057768;28;20568;-82
2021/11/23 01:40:33;;;;;;;21.95;17.67;;;7.00;99.90;;;;;;5056363;28;20052;-82
2021/11/23 01:43:05;;;;;;;21.10;16.40;;;7.00;99.90;;;;;;5053891;28;20056;-82
2021/11/23 01:45:34;;;;;;;21.23;15.73;;;7.40;99.90;;;;;;5059545;28;20041;-82
2021/11/23 01:48:00;;;;;;;16.65;13.50;;;6.90;99.90;;;;;;5057144;28;20071;-82
2021/11/23 01:50:26;;;;;;;17.20;13.50;;;6.90;99.90;;;;;;5057172;28;20068;-82
2021/11/23 01:52:52;;;;;;;17.90;13.88;;;6.90;99.90;;;;;;5057431;28;20481;-82
2021/11/23 01:55:18;;;;;;;16.48;13.40;;;6.90;99.90;;;;;;5053453;28;20394;-82
2021/11/23 01:57:44;;;;;;;19.83;15.63;;;6.90;99.90;;;;;;5057602;28;20017;-82
2021/11/23 02:00:11;;;;;;;18.02;14.63;;;6.90;99.90;;;;;;5057622;28;20032;-82
2021/11/23 02:02:37;;;;;;;18.98;15.30;;;7.00;99.90;;;;;;5056879;28;20086;-82
2021/11/23 02:05:03;;;;;;;17.85;14.00;;;7.00;99.90;;;;;;5055170;28;20486;-82
2021/11/23 02:07:29;;;;;;;19.75;15.10;;;7.00;99.90;;;;;;5053680;28;20056;-82
2021/11/23 02:09:55;;;;;;;20.95;14.90;;;7.30;99.90;;;;;;5054131;28;20037;-82
2021/11/23 02:12:21;;;;;;;19.42;15.48;;;7.20;99.90;;;;;;5058967;28;20390;-81
2021/11/23 02:14:47;;;;;;;18.67;15.00;;;7.10;99.90;;;;;;5056624;28;20379;-82
2021/11/23 02:17:13;;;;;;;18.55;14.90;;;7.00;99.90;;;;;;5056781;28;20071;-82
2021/11/23 02:19:38;;;;;;;17.23;14.13;;;7.00;99.90;;;;;;5056119;28;20036;-82
2021/11/23 02:22:04;;;;;;;17.95;13.95;;;7.00;99.90;;;;;;5052851;28;20500;-82
2021/11/23 02:24:30;;;;;;;18.80;14.40;;;7.50;99.90;;;;;;5058083;28;20041;-82
2021/11/23 02:26:56;;;;;;;17.35;14.00;;;7.00;99.90;;;;;;5056476;28;20043;-82
2021/11/23 02:29:21;;;;;;;17.52;13.70;;;7.00;99.90;;;;;;5057083;28;20025;-82
2021/11/23 02:31:47;;;;;;;18.63;13.52;;;7.00;99.90;;;;;;5056614;28;20035;-82
2021/11/23 02:34:13;;;;;;;18.35;14.05;;;7.20;99.90;;;;;;5052191;28;20033;-83
2021/11/23 02:36:41;;;;;;;16.63;13.77;;;7.00;99.90;;;;;;5058397;28;20461;-82
2021/11/23 02:39:07;;;;;;;17.25;13.77;;;7.00;99.90;;;;;;5056343;28;20028;-82
2021/11/23 02:41:32;;;;;;;17.30;13.18;;;7.00;99.90;;;;;;5056578;28;20083;-82
2021/11/23 02:43:58;;;;;;;17.38;13.98;;;7.00;99.90;;;;;;5054675;28;20032;-82
2021/11/23 02:46:24;;;;;;;17.67;13.77;;;7.00;99.90;;;;;;5052436;28;20037;-82
2021/11/23 02:48:50;;;;;;;18.02;13.40;;;7.40;99.90;;;;;;5054800;28;20062;-82
2021/11/23 02:51:17;;;;;;;17.45;13.43;;;7.00;99.90;;;;;;5057995;28;20037;-82
2021/11/23 02:53:44;;;;;;;17.20;13.40;;;7.00;99.90;;;;;;5055423;28;20095;-82
2021/11/23 02:56:11;;;;;;;15.88;13.25;;;7.30;99.90;;;;;;5056114;28;20020;-82
2021/11/23 02:58:37;;;;;;;17.92;13.85;;;7.00;99.90;;;;;;5055388;28;20029;-82
2021/11/23 03:01:05;;;;;;;17.30;13.57;;;7.00;99.90;;;;;;5052612;28;20028;-83
2021/11/23 03:03:31;;;;;;;17.00;13.77;;;7.30;99.90;;;;;;5057648;28;20436;-82
2021/11/23 03:05:57;;;;;;;16.75;13.02;;;7.30;99.90;;;;;;5055766;28;20068;-82
2021/11/23 03:08:23;;;;;;;17.20;13.48;;;7.00;99.90;;;;;;5056062;28;20489;-82
2021/11/23 03:10:49;;;;;;;19.30;14.52;;;7.00;99.90;;;;;;5055630;28;20025;-82
2021/11/23 03:13:15;;;;;;;18.13;13.80;;;7.00;99.90;;;;;;5052032;28;20029;-82
2021/11/23 03:15:41;;;;;;;16.95;13.32;;;7.00;99.90;;;;;;5056755;28;20021;-82
2021/11/23 03:18:09;;;;;;;15.93;12.38;;;7.00;99.90;;;;;;5056037;28;20044;-82
2021/11/23 03:20:36;;;;;;;15.70;12.43;;;7.00;99.90;;;;;;5055198;28;20029;-82
2021/11/23 03:23:03;;;;;;;18.58;13.57;;;7.00;99.90;;;;;;5054318;28;20036;-82
2021/11/23 03:25:29;;;;;;;15.95;13.48;;;7.00;99.90;;;;;;5052056;28;20033;-82
2021/11/23 03:27:56;;;;;;;14.90;11.95;;;7.30;99.90;;;;;;5052793;28;20033;-82
2021/11/23 03:30:25;;;;;;;18.75;13.43;;;7.00;99.90;;;;;;5057326;28;20505;-82
2021/11/23 03:32:54;;;;;;;15.05;12.43;;;7.00;99.90;;;;;;5055554;28;20029;-82
2021/11/23 03:35:21;;;;;;;16.02;12.95;;;7.50;99.90;;;;;;5054786;28;20036;-82
2021/11/23 03:37:47;;;;;;;15.18;12.77;;;7.00;99.90;;;;;;5048017;28;20051;-82
2021/11/23 03:40:13;;;;;;;14.60;12.18;;;7.10;99.90;;;;;;5051573;28;20029;-82
2021/11/23 03:42:38;;;;;;;16.02;12.55;;;7.00;99.90;;;;;;5051749;28;20031;-82
2021/11/23 03:45:05;;;;;;;16.05;12.63;;;7.00;99.90;;;;;;5052800;28;20382;-82
2021/11/23 03:47:33;;;;;;;16.00;12.40;;;7.00;99.90;;;;;;5054838;28;20029;-82
2021/11/23 03:49:59;;;;;;;15.45;12.00;;;7.00;99.90;;;;;;5054860;28;20035;-82
2021/11/23 03:52:25;;;;;;;14.75;12.27;;;6.90;99.90;;;;;;5052554;28;20021;-82
2021/11/23 03:54:51;;;;;;;13.57;11.48;;;7.00;99.90;;;;;;5053344;28;20535;-82
2021/11/23 03:57:17;;;;;;;16.50;12.65;;;6.90;99.90;;;;;;5056317;28;20021;-82
2021/11/23 03:59:47;;;;;;;15.90;13.07;;;7.10;99.90;;;;;;5054966;28;20444;-82
2021/11/23 04:02:18;;;;;;;16.90;12.93;;;6.90;99.90;;;;;;5053185;28;20029;-82
2021/11/23 04:04:44;;;;;;;18.15;13.15;;;6.90;99.90;;;;;;5053012;28;20505;-82
2021/11/23 04:07:10;;;;;;;16.17;12.90;;;7.00;99.90;;;;;;5050304;28;20036;-82
2021/11/23 04:09:36;;;;;;;16.13;12.68;;;7.20;99.90;;;;;;5067896;28;20032;-82
2021/11/23 04:12:01;;;;;;;16.20;12.60;;;7.10;99.90;;;;;;5055138;28;20039;-82
2021/11/23 04:14:27;;;;;;;18.33;13.93;;;6.90;99.90;;;;;;5054507;28;20032;-82
2021/11/23 04:16:53;;;;;;;15.23;12.43;;;6.90;99.90;;;;;;5046626;28;20031;-82
2021/11/23 04:19:19;;;;;;;17.15;12.98;;;7.10;99.90;;;;;;5050878;28;20029;-82
2021/11/23 04:21:44;;;;;;;17.25;14.05;;;7.30;99.90;;;;;;5054520;28;20376;-82
2021/11/23 04:24:10;;;;;;;14.50;12.52;;;6.90;99.90;;;;;;5055263;28;20389;-82
2021/11/23 04:26:36;;;;;;;17.75;13.15;;;7.10;99.90;;;;;;5054266;28;20485;-82
2021/11/23 04:29:01;;;;;;;18.05;13.52;;;6.90;99.90;;;;;;5054290;28;20021;-82
2021/11/23 04:31:27;;;;;;;15.57;12.30;;;7.00;99.90;;;;;;5052179;28;20025;-82
2021/11/23 04:33:53;;;;;;;16.50;13.10;;;6.90;99.90;;;;;;5052210;28;20075;-82
2021/11/23 04:36:19;;;;;;;17.77;12.93;;;6.80;99.90;;;;;;5056190;28;20354;-82
2021/11/23 04:38:44;;;;;;;15.02;12.63;;;6.80;99.90;;;;;;5054035;28;20028;-82
2021/11/23 04:41:10;;;;;;;14.77;11.98;;;7.00;99.90;;;;;;5052676;28;20506;-82
2021/11/23 04:43:36;;;;;;;15.95;11.93;;;7.20;99.90;;;;;;5051867;28;20147;-82
2021/11/23 04:46:02;;;;;;;16.15;12.70;;;7.00;99.90;;;;;;5050417;28;20409;-82
2021/11/23 04:48:28;;;;;;;14.75;11.82;;;6.80;99.90;;;;;;5055465;28;20024;-82
2021/11/23 04:50:55;;;;;;;14.85;12.60;;;6.90;99.90;;;;;;5053892;28;20033;-82
2021/11/23 04:53:21;;;;;;;14.32;11.95;;;6.90;99.90;;;;;;5054102;28;20124;-81
2021/11/23 04:55:46;;;;;;;15.70;12.38;;;6.90;99.90;;;;;;5054333;28;20472;-82
2021/11/23 04:58:12;;;;;;;16.73;12.35;;;6.90;99.90;;;;;;5048964;28;20038;-82
2021/11/23 05:00:38;;;;;;;16.85;13.50;;;6.90;99.90;;;;;;5055475;28;20029;-82
2021/11/23 05:03:03;;;;;;;16.33;12.90;;;6.90;99.90;;;;;;5051661;28;20025;-82
2021/11/23 05:05:29;;;;;;;16.98;13.10;;;6.80;99.90;;;;;;5053735;28;20060;-82
2021/11/23 05:07:55;;;;;;;17.23;13.40;;;6.80;99.90;;;;;;5053781;28;20035;-82
2021/11/23 05:10:21;;;;;;;17.08;13.55;;;6.90;99.90;;;;;;5051661;28;20087;-82
2021/11/23 05:12:47;;;;;;;17.73;13.13;;;6.90;99.90;;;;;;5052654;28;20052;-82
2021/11/23 05:15:13;;;;;;;15.80;12.43;;;6.80;99.90;;;;;;5055043;28;20482;-82
2021/11/23 05:17:39;;;;;;;14.63;11.38;;;6.80;99.90;;;;;;5053301;28;20030;-82
2021/11/23 05:20:07;;;;;;;14.63;12.05;;;6.70;99.90;;;;;;5052752;28;20025;-82
2021/11/23 05:22:32;;;;;;;14.20;11.43;;;6.70;99.90;;;;;;5051631;28;20028;-82
2021/11/23 05:24:58;;;;;;;16.92;11.38;;;6.80;99.90;;;;;;5050150;28;20041;-82
2021/11/23 05:27:24;;;;;;;13.57;10.80;;;6.60;99.90;;;;;;5055584;28;20079;-82
2021/11/23 05:29:49;;;;;;;14.20;11.25;;;6.80;99.90;;;;;;5054090;28;20370;-82
2021/11/23 05:32:15;;;;;;;14.45;11.38;;;6.60;99.90;;;;;;5053068;28;20029;-82
2021/11/23 05:34:41;;;;;;;14.05;10.60;;;6.60;99.90;;;;;;5053416;28;20070;-82
2021/11/23 05:37:06;;;;;;;14.75;11.68;;;6.60;99.90;;;;;;5033237;28;20029;-82
2021/11/23 05:39:32;;;;;;;15.05;11.27;;;6.60;99.90;;;;;;5055711;28;20025;-82
2021/11/23 05:41:57;;;;;;;14.18;11.27;;;6.60;99.90;;;;;;5053876;28;20039;-82
2021/11/23 05:44:23;;;;;;;12.13;10.32;;;6.70;99.90;;;;;;5053692;28;20044;-82
2021/11/23 05:46:49;;;;;;;14.68;10.23;;;6.70;99.90;;;;;;5052668;28;20075;-85
2021/11/23 05:49:16;;;;;;;13.85;10.77;;;6.70;99.90;;;;;;5050302;28;20404;-85
2021/11/23 05:51:43;;;;;;;14.30;10.80;;;6.60;99.90;;;;;;5053872;28;20048;-85
2021/11/23 05:54:08;;;;;;;13.10;10.70;;;6.50;99.90;;;;;;5053760;28;20021;-84
2021/11/23 05:56:34;;;;;;;15.00;10.90;;;6.60;99.90;;;;;;5043294;28;20447;-85
2021/11/23 05:59:00;;;;;;;14.90;10.50;;;6.70;99.90;;;;;;5051797;28;20024;-84
2021/11/23 06:01:25;;;;;;;13.23;10.50;;;6.40;99.90;;;;;;5044728;28;20489;-85
2021/11/23 06:03:51;;;;;;;13.07;10.50;;;6.40;99.90;;;;;;5051202;28;20025;-84
2021/11/23 06:06:17;;;;;;;13.55;10.27;;;6.50;99.90;;;;;;5054482;28;20053;-84
2021/11/23 06:08:42;;;;;;;14.35;10.23;;;6.50;99.90;;;;;;5054413;28;20490;-85
2021/11/23 06:11:08;;;;;;;14.45;10.48;;;6.10;99.90;;;;;;5056666;28;20504;-84
2021/11/23 06:13:34;;;;;;;14.45;11.20;;;6.30;99.90;;;;;;5056131;28;20063;-85
2021/11/23 06:16:00;;;;;;;13.13;10.48;;;5.90;99.90;;;;;;5052857;28;20021;-85
2021/11/23 06:18:26;;;;;;;12.82;10.85;;;5.80;99.90;;;;;;5059029;28;20028;-85
2021/11/23 06:20:54;;;;;;;14.40;10.93;;;6.20;99.90;;;;;;5056852;28;20056;-85
2021/11/23 06:23:21;;;;;;;15.32;10.68;;;5.70;99.90;;;;;;5056607;28;20108;-84
2021/11/23 06:25:49;;;;;;;15.55;12.20;;;5.60;99.90;;;;;;5056290;28;20043;-85
2021/11/23 06:28:26;;;;;;;16.25;12.20;;;5.50;99.90;;;;;;5052975;28;20104;-86
2021/11/23 06:30:52;;;;;;;14.13;11.00;;;5.70;99.90;;;;;;5050029;28;20051;-85
2021/11/23 06:33:18;;;;;;;15.93;12.18;;;5.40;99.90;;;;;;5050085;28;20477;-85
2021/11/23 06:35:44;;;;;;;14.45;11.55;;;5.30;99.90;;;;;;5057065;28;20029;-90
2021/11/23 06:38:10;;;;;;;17.52;13.15;;;5.30;99.90;;;;;;5045323;28;20040;-89
2021/11/23 06:40:38;;;;;;;18.08;13.52;;;5.60;99.90;;;;;;5055012;28;20062;-90
2021/11/23 06:43:07;;;;;;;24.85;14.68;;;5.50;99.90;;;;;;5052827;28;20504;-87
2021/11/23 06:45:35;;;;;;;20.95;14.60;;;5.20;99.90;;;;;;5052895;28;20475;-88
2021/11/23 06:48:01;;;;;;;22.13;17.00;;;5.20;99.90;;;;;;5067414;28;20489;-88
2021/11/23 06:50:32;;;;;;;20.92;14.52;;;5.70;99.90;;;;;;5061883;28;20031;-89
2021/11/23 06:53:06;;;;;;;22.08;14.68;;;5.70;99.90;;;;;;5047390;28;20025;-86
2021/11/23 06:55:32;;;;;;;24.63;16.88;;;5.20;99.90;;;;;;5054706;28;20020;-86
2021/11/23 06:57:59;;;;;;;19.38;14.25;;;5.20;99.90;;;;;;5053021;28;20049;-86
2021/11/23 07:00:25;;;;;;;23.42;14.70;;;5.60;99.90;;;;;;5057900;28;20048;-85
2021/11/23 07:02:51;;;;;;;21.08;14.35;;;5.30;99.90;;;;;;5055720;28;20025;-85
2021/11/23 07:05:17;;;;;;;25.65;16.52;;;5.30;99.90;;;;;;5056015;28;20057;-85
2021/11/23 07:07:43;;;;;;;26.67;17.83;;;5.40;99.90;;;;;;5056088;28;20031;-85
2021/11/23 07:10:11;;;;;;;28.80;21.05;;;5.50;99.90;;;;;;5051402;28;20021;-86
2021/11/23 07:12:37;;;;;;;25.38;17.08;;;5.60;99.90;;;;;;5047334;28;20408;-85
2021/11/23 07:15:04;;;;;;;23.20;18.27;;;5.80;99.90;;;;;;5055715;28;20032;-85
2021/11/23 07:17:29;;;;;;;22.55;17.20;;;5.90;99.90;;;;;;5054113;28;20025;-86
2021/11/23 07:19:55;;;;;;;22.50;17.98;;;6.40;99.90;;;;;;5053166;28;20081;-85
2021/11/23 07:22:21;;;;;;;21.17;16.15;;;6.00;99.90;;;;;;5052731;28;20108;-86
2021/11/23 07:24:46;;;;;;;21.92;15.40;;;6.20;99.90;;;;;;5055510;28;20482;-86
2021/11/23 07:27:13;;;;;;;20.52;16.20;;;6.20;99.90;;;;;;5056745;28;20032;-85
2021/11/23 07:29:39;;;;;;;20.08;13.82;;;6.20;99.90;;;;;;5055125;28;20021;-85
2021/11/23 07:32:05;;;;;;;17.23;12.73;;;6.40;99.90;;;;;;5055462;28;20393;-85
2021/11/23 07:34:31;;;;;;;16.73;13.48;;;6.70;99.90;;;;;;5054015;28;20035;-85
2021/11/23 07:36:57;;;;;;;15.55;12.25;;;6.60;99.90;;;;;;5052015;28;20021;-85
2021/11/23 07:39:22;;;;;;;17.27;12.68;;;7.30;99.90;;;;;;5049909;28;20047;-85
2021/11/23 07:41:48;;;;;;;18.20;12.85;;;8.10;99.90;;;;;;5054818;28;20021;-85
2021/11/23 07:44:13;;;;;;;20.58;12.75;;;7.90;99.90;;;;;;5055544;28;20048;-84
2021/11/23 07:46:40;;;;;;;16.58;11.32;;;7.40;99.90;;;;;;5054783;28;20499;-85
2021/11/23 07:49:06;;;;;;;18.92;11.75;;;7.40;99.90;;;;;;5050556;28;20029;-85
2021/11/23 07:51:33;;;;;;;17.73;11.15;;;7.30;99.90;;;;;;5056755;28;20036;-86
2021/11/23 07:53:59;;;;;;;18.30;11.98;;;7.30;99.90;;;;;;5055330;28;20402;-85
2021/11/23 07:56:25;;;;;;;18.10;10.55;;;7.40;99.90;;;;;;5052992;28;20033;-85
2021/11/23 07:58:51;;;;;;;13.38;9.35;;;8.60;99.90;;;;;;5053085;28;20469;-86
2021/11/23 08:01:17;;;;;;;13.85;9.27;;;10.40;99.90;;;;;;5051298;28;20027;-85
2021/11/23 08:03:42;;;;;;;15.63;9.52;;;12.10;99.90;;;;;;5054876;28;20024;-85
2021/11/23 08:06:08;;;;;;;12.73;9.15;;;13.50;99.90;;;;;;5055307;28;20102;-85
2021/11/23 08:08:34;;;;;;;11.15;7.57;;;14.40;99.90;;;;;;5054953;28;20025;-86
2021/11/23 08:11:01;;;;;;;13.93;8.20;;;15.60;99.90;;;;;;5054135;28;20024;-86
2021/11/23 08:13:27;;;;;;;11.95;8.40;;;16.40;99.90;;;;;;5052636;28;20527;-86
2021/11/23 08:15:52;;;;;;;13.95;9.80;;;17.20;99.90;;;;;;5052467;28;20075;-85
2021/11/23 08:18:19;;;;;;;14.05;7.75;;;17.40;99.90;;;;;;5056055;28;20028;-86
2021/11/23 08:20:45;;;;;;;8.75;7.32;;;17.70;99.90;;;;;;5054705;28;20025;-86
2021/11/23 08:23:11;;;;;;;8.15;6.32;;;17.30;99.90;;;;;;5054868;28;20049;-86
2021/11/23 08:25:39;;;;;;;9.05;7.22;;;17.90;99.90;;;;;;5053177;28;20114;-86
2021/11/23 08:28:05;;;;;;;10.25;6.85;;;17.80;99.90;;;;;;5050293;28;20020;-85
2021/11/23 08:30:31;;;;;;;8.90;7.25;;;16.60;99.90;;;;;;5056339;28;20024;-86
2021/11/23 08:32:57;;;;;;;9.38;7.72;;;15.80;99.90;;;;;;5054381;28;20021;-86
2021/11/23 08:35:23;;;;;;;8.63;7.53;;;14.00;99.90;;;;;;5052560;28;20052;-86
2021/11/23 08:37:49;;;;;;;9.63;7.45;;;14.30;99.90;;;;;;5052722;28;20023;-86
2021/11/23 08:40:15;;;;;;;10.32;8.15;;;16.90;99.90;;;;;;5050022;28;20409;-86
2021/11/23 08:42:41;;;;;;;9.38;7.35;;;18.50;99.90;;;;;;5055142;28;20028;-85
2021/11/23 08:45:09;;;;;;;9.35;7.47;;;17.10;99.90;;;;;;5051545;28;20497;-86
2021/11/23 08:47:35;;;;;;;11.10;7.85;;;18.20;99.90;;;;;;5054374;28;20028;-86
2021/11/23 08:50:02;;;;;;;9.13;7.75;;;17.90;99.90;;;;;;5053780;28;20021;-85
2021/11/23 08:52:28;;;;;;;9.23;7.90;;;15.30;99.90;;;;;;5052074;28;20557;-85
2021/11/23 08:54:54;;;;;;;8.65;7.57;;;17.40;99.90;;;;;;5051038;28;20112;-86
2021/11/23 08:57:20;;;;;;;8.70;7.70;;;18.10;99.90;;;;;;5053797;28;20539;-85
2021/11/23 08:59:46;;;;;;;10.32;8.00;;;21.10;99.90;;;;;;5054163;28;20033;-85
2021/11/23 09:02:16;;;;;;;8.65;7.55;;;21.70;99.90;;;;;;5053826;28;20028;-86
2021/11/23 09:04:42;;;;;;;8.82;7.40;;;21.80;99.90;;;;;;5053509;28;20532;-86
2021/11/23 09:07:11;;;;;;;9.13;7.78;;;23.40;99.90;;;;;;5034103;28;20057;-85
2021/11/23 09:09:40;;;;;;;18.25;13.65;;;22.90;99.90;;;;;;5063137;28;20476;-86
2021/11/23 09:12:07;;;;;;;8.75;7.22;;;22.90;99.90;;;;;;5043133;28;20392;-83
2021/11/23 09:14:35;;;;;;;8.95;8.05;;;22.30;99.90;;;;;;5053097;28;20435;-83
2021/11/23 09:17:01;;;;;;;10.60;7.63;;;23.00;99.90;;;;;;5052292;28;20504;-83
2021/11/23 09:19:27;;;;;;;9.18;7.68;;;22.80;99.90;;;;;;5051584;28;20036;-83
2021/11/23 09:21:54;;;;;;;9.32;8.27;;;22.30;99.90;;;;;;5051979;28;20021;-83
2021/11/23 09:24:23;;;;;;;9.02;7.43;;;22.70;99.90;;;;;;5052874;28;20078;-82
2021/11/23 09:26:51;;;;;;;8.57;7.60;;;22.80;99.90;;;;;;5053762;28;20025;-89
2021/11/23 09:29:17;;;;;;;9.35;7.50;;;22.90;99.90;;;;;;5052763;28;20397;-83
2021/11/23 09:31:43;;;;;;;7.70;6.90;;;22.20;99.90;;;;;;5054006;28;20032;-84
2021/11/23 09:34:10;;;;;;;7.95;7.13;;;23.10;99.90;;;;;;5049580;28;20025;-83
2021/11/23 09:36:37;;;;;;;11.18;9.80;;;22.70;99.90;;;;;;5062512;28;20488;-83
2021/11/23 09:39:03;;;;;;;102.10;71.72;;;20.70;99.90;;;;;;5053437;28;20112;-84
2021/11/23 09:41:31;;;;;;;33.42;26.02;;;20.10;99.90;;;;;;5053989;28;20034;-83
2021/11/23 09:43:56;;;;;;;13.52;12.15;;;19.50;99.90;;;;;;5054889;28;20032;-84
2021/11/23 09:46:22;;;;;;;68.25;43.78;;;19.90;99.90;;;;;;5054794;28;20025;-82
2021/11/23 09:48:48;;;;;;;9.00;7.00;;;20.80;99.90;;;;;;5056310;28;20029;-82
2021/11/23 09:51:24;;;;;;;9.55;8.10;;;19.10;99.90;;;;;;5058399;28;20037;-84
2021/11/23 09:53:50;;;;;;;13.60;10.63;;;17.80;99.90;;;;;;5055780;28;20388;-81
2021/11/23 09:56:16;;;;;;;55.92;32.45;;;17.90;99.90;;;;;;5055171;28;20029;-82
2021/11/23 09:58:42;;;;;;;17.58;10.80;;;19.50;99.90;;;;;;5056856;28;20481;-83
2021/11/23 10:01:11;;;;;;;9.50;7.70;;;22.20;99.90;;;;;;5037295;28;20021;-82
2021/11/23 10:03:37;;;;;;;8.05;7.32;;;22.60;99.90;;;;;;5066573;28;20412;-82
2021/11/23 10:06:10;;;;;;;8.63;7.20;;;23.40;99.90;;;;;;5056731;28;20064;-82
2021/11/23 10:08:38;;;;;;;8.93;7.78;;;24.40;99.90;;;;;;5056837;28;20036;-82
2021/11/23 10:11:04;;;;;;;8.52;7.72;;;24.90;99.90;;;;;;5057107;28;20017;-82
2021/11/23 10:13:48;;;;;;;8.52;7.13;;;24.90;99.90;;;;;;5055396;28;20457;-82
2021/11/23 10:16:15;;;;;;;8.27;7.47;;;24.30;99.90;;;;;;5036367;28;20025;-82
2021/11/23 10:18:42;;;;;;;8.45;7.07;;;25.20;99.90;;;;;;5057639;28;20028;-82
2021/11/23 10:21:11;;;;;;;8.10;7.30;;;25.10;99.90;;;;;;5054588;28;20079;-82
2021/11/23 10:23:49;;;;;;;8.05;7.25;;;24.70;99.90;;;;;;5056431;28;20485;-82
2021/11/23 10:26:27;;;;;;;7.90;7.10;;;23.40;99.90;;;;;;5056530;28;20541;-83
2021/11/23 10:28:55;;;;;;;7.90;7.00;;;21.80;99.90;;;;;;5057034;28;20029;-83
2021/11/23 10:31:23;;;;;;;8.65;7.72;;;19.80;99.90;;;;;;5052219;28;20030;-82
2021/11/23 10:33:57;;;;;;;8.57;7.78;;;18.60;99.90;;;;;;5051203;28;20060;-85
2021/11/23 10:36:29;;;;;;;8.43;7.25;;;18.70;99.90;;;;;;5056324;28;20052;-84
2021/11/23 10:39:12;;;;;;;9.15;7.80;;;22.70;99.90;;;;;;5056299;28;20075;-82
2021/11/23 10:41:39;;;;;;;8.57;7.68;;;24.00;99.90;;;;;;5056320;28;20025;-82
2021/11/23 10:44:20;;;;;;;15.32;12.55;;;23.60;99.90;;;;;;5055897;28;20035;-83
2021/11/23 10:46:54;;;;;;;9.50;7.82;;;25.40;99.90;;;;;;5056814;28;20032;-87
2021/11/23 10:49:43;;;;;;;8.35;7.55;;;25.10;99.90;;;;;;5053262;28;20037;-86
2021/11/23 10:52:35;;;;;;;8.40;7.60;;;25.30;99.90;;;;;;5035652;28;20060;-87
2021/11/23 10:55:01;;;;;;;9.25;7.95;;;27.00;99.90;;;;;;5065467;28;20040;-83
2021/11/23 10:57:27;;;;;;;10.50;7.97;;;27.40;99.90;;;;;;5057836;28;20481;-82
2021/11/23 10:59:52;;;;;;;8.85;7.95;;;28.10;99.90;;;;;;5056075;28;20033;-83
2021/11/23 11:02:18;;;;;;;8.60;7.78;;;28.70;99.90;;;;;;5055814;28;20029;-84
2021/11/23 11:04:45;;;;;;;8.50;7.50;;;29.20;99.90;;;;;;5055700;28;20158;-84
2021/11/23 11:07:12;;;;;;;8.27;7.50;;;28.60;99.90;;;;;;5051769;28;20017;-84
2021/11/23 11:09:38;;;;;;;7.47;6.72;;;27.20;99.90;;;;;;5058278;28;20029;-86
2021/11/23 11:12:05;;;;;;;10.05;8.32;;;26.90;99.90;;;;;;5055193;28;20025;-85
2021/11/23 11:14:35;;;;;;;7.93;7.13;;;26.90;99.90;;;;;;5055616;28;20029;-86
2021/11/23 11:17:06;;;;;;;7.95;7.07;;;26.60;99.90;;;;;;5055767;28;20032;-84
2021/11/23 11:19:49;;;;;;;7.97;7.25;;;27.30;99.90;;;;;;5054060;28;20028;-87
2021/11/23 11:22:17;;;;;;;9.07;8.07;;;27.30;99.90;;;;;;5018021;28;20025;-85
2021/11/23 11:27:39;;;;;;;7.75;7.05;;;27.20;99.90;;;;;;5069302;28;20029;-88
2021/11/23 11:30:46;;;;;;;8.48;7.68;;;27.60;99.90;;;;;;5053146;28;20040;-87
2021/11/23 11:33:14;;;;;;;8.85;7.75;;;26.20;99.90;;;;;;5052281;28;20079;-85
2021/11/23 11:35:49;;;;;;;8.32;7.30;;;26.30;99.90;;;;;;5055011;28;20089;-86
2021/11/23 11:38:27;;;;;;;8.88;7.85;;;26.60;99.90;;;;;;5056094;28;20033;-87
2021/11/23 11:41:04;;;;;;;7.90;7.10;;;26.40;99.90;;;;;;5056158;28;20500;-86
2021/11/23 11:43:37;;;;;;;8.05;7.25;;;25.90;99.90;;;;;;5054158;28;20374;-87
2021/11/23 11:46:04;;;;;;;7.78;7.07;;;27.20;99.90;;;;;;5052373;28;20041;-83
2021/11/23 11:48:30;;;;;;;9.30;7.03;;;26.40;99.90;;;;;;5056653;28;20079;-83
2021/11/23 11:51:09;;;;;;;7.25;6.65;;;23.50;99.90;;;;;;5054334;28;20033;-83
2021/11/23 11:53:49;;;;;;;7.03;6.43;;;24.00;99.90;;;;;;5053256;28;20029;-83
2021/11/23 11:56:34;;;;;;;7.65;7.03;;;22.80;99.90;;;;;;5055084;28;20029;-86
2021/11/23 11:59:01;;;;;;;8.10;7.40;;;24.90;99.90;;;;;;5055009;28;20024;-86
2021/11/23 12:01:34;;;;;;;8.02;7.30;;;25.60;99.90;;;;;;5048673;28;20022;-90
2021/11/23 12:04:12;;;;;;;7.75;6.95;;;26.70;99.90;;;;;;5050577;28;20160;-86
2021/11/23 12:06:53;;;;;;;8.27;7.55;;;26.70;99.90;;;;;;5064141;28;20037;-86
2021/11/23 12:09:44;;;;;;;8.18;7.38;;;26.40;99.90;;;;;;5034617;28;20032;-82
2021/11/23 12:12:10;;;;;;;7.75;6.95;;;25.90;99.90;;;;;;5037388;28;20026;-82
2021/11/23 12:14:54;;;;;;;7.45;6.75;;;26.50;99.90;;;;;;5040519;28;20032;-83
2021/11/23 12:17:38;;;;;;;8.30;6.68;;;24.80;99.90;;;;;;5045908;28;20219;-83
2021/11/23 12:20:26;;;;;;;7.45;6.75;;;22.30;99.90;;;;;;5044575;28;20511;-83
2021/11/23 12:22:53;;;;;;;8.02;7.22;;;21.30;99.90;;;;;;5047030;28;20111;-83
2021/11/23 12:25:20;;;;;;;7.85;6.93;;;19.20;99.90;;;;;;5033172;28;20574;-83
2021/11/23 12:27:50;;;;;;;8.27;7.55;;;18.30;99.90;;;;;;5047370;28;20425;-83
2021/11/23 12:30:20;;;;;;;8.98;8.18;;;17.80;99.90;;;;;;5046709;28;20037;-82
2021/11/23 12:32:49;;;;;;;8.20;7.45;;;16.90;99.90;;;;;;5044390;28;20436;-82
2021/11/23 12:35:18;;;;;;;8.20;7.40;;;18.90;99.90;;;;;;5044171;28;20033;-83
2021/11/23 12:37:47;;;;;;;8.23;6.95;;;19.80;99.90;;;;;;5044682;28;20485;-82
2021/11/23 12:40:14;;;;;;;8.55;7.75;;;19.40;99.90;;;;;;5048420;28;20029;-83
2021/11/23 12:42:51;;;;;;;9.57;7.47;;;18.20;99.90;;;;;;5047427;28;20052;-83